sensor_id;sensor_type;location;lat;lon;timestamp;P1;durP1;ratioP1;P2;durP2;ratioP2
5052;SDS011;2545;50.892;5.740;2023-03-14T00:00:07;3.77;;;1.40;;
5052;SDS011;2545;50.892;5.740;2023-03-14T00:02:35;5.00;;;1.50;;
5052;SDS011;2545;50.892;5.740;2023-03-14T00:05:01;2.63;;;1.50;;
5052;SDS011;2545;50.892;5.740;2023-03-14T00:07:31;5.00;;;2.00;;
5052;SDS011;2545;50.892;5.740;2023-03-14T00:09:58;10.07;;;3.33;;
5052;SDS011;2545;50.892;5.740;2023-03-14T00:12:24;4.43;;;1.90;;
5052;SDS011;2545;50.892;5.740;2023-03-14T00:14:49;5.70;;;2.23;;
5052;SDS011;2545;50.892;5.740;2023-03-14T00:17:15;3.63;;;1.70;;
5052;SDS011;2545;50.892;5.740;2023-03-14T00:19:40;2.00;;;1.80;;
5052;SDS011;2545;50.892;5.740;2023-03-14T00:22:05;11.00;;;2.43;;
5052;SDS011;2545;50.892;5.740;2023-03-14T00:24:30;4.47;;;1.43;;
5052;SDS011;2545;50.892;5.740;2023-03-14T00:26:56;11.60;;;2.30;;
5052;SDS011;2545;50.892;5.740;2023-03-14T00:29:21;8.33;;;1.73;;
5052;SDS011;2545;50.892;5.740;2023-03-14T00:31:46;10.20;;;3.20;;
5052;SDS011;2545;50.892;5.740;2023-03-14T00:34:12;8.20;;;2.37;;
5052;SDS011;2545;50.892;5.740;2023-03-14T00:36:37;13.03;;;2.90;;
5052;SDS011;2545;50.892;5.740;2023-03-14T00:39:02;9.23;;;2.40;;
5052;SDS011;2545;50.892;5.740;2023-03-14T00:41:28;14.40;;;2.23;;
5052;SDS011;2545;50.892;5.740;2023-03-14T00:43:53;6.97;;;3.20;;
5052;SDS011;2545;50.892;5.740;2023-03-14T00:46:18;17.13;;;3.03;;
5052;SDS011;2545;50.892;5.740;2023-03-14T00:48:44;13.43;;;2.67;;
5052;SDS011;2545;50.892;5.740;2023-03-14T00:51:11;16.37;;;2.40;;
5052;SDS011;2545;50.892;5.740;2023-03-14T00:53:38;7.30;;;2.30;;
5052;SDS011;2545;50.892;5.740;2023-03-14T00:56:08;8.60;;;2.40;;
5052;SDS011;2545;50.892;5.740;2023-03-14T00:58:35;5.83;;;2.30;;
5052;SDS011;2545;50.892;5.740;2023-03-14T01:01:07;6.03;;;2.17;;
5052;SDS011;2545;50.892;5.740;2023-03-14T01:03:34;8.33;;;3.17;;
5052;SDS011;2545;50.892;5.740;2023-03-14T01:06:10;11.97;;;2.27;;
5052;SDS011;2545;50.892;5.740;2023-03-14T01:08:41;6.23;;;1.97;;
5052;SDS011;2545;50.892;5.740;2023-03-14T01:11:11;4.10;;;1.43;;
5052;SDS011;2545;50.892;5.740;2023-03-14T01:13:40;5.73;;;2.80;;
5052;SDS011;2545;50.892;5.740;2023-03-14T01:16:06;6.70;;;1.33;;
5052;SDS011;2545;50.892;5.740;2023-03-14T01:18:34;13.40;;;3.30;;
5052;SDS011;2545;50.892;5.740;2023-03-14T01:21:01;9.67;;;1.90;;
5052;SDS011;2545;50.892;5.740;2023-03-14T01:23:27;7.83;;;2.63;;
5052;SDS011;2545;50.892;5.740;2023-03-14T01:25:53;8.57;;;2.00;;
5052;SDS011;2545;50.892;5.740;2023-03-14T01:28:18;10.23;;;1.90;;
5052;SDS011;2545;50.892;5.740;2023-03-14T01:30:43;5.80;;;1.90;;
5052;SDS011;2545;50.892;5.740;2023-03-14T01:33:09;5.70;;;1.80;;
5052;SDS011;2545;50.892;5.740;2023-03-14T01:35:34;8.50;;;2.00;;
5052;SDS011;2545;50.892;5.740;2023-03-14T01:37:59;6.07;;;1.73;;
5052;SDS011;2545;50.892;5.740;2023-03-14T01:40:25;5.37;;;1.70;;
5052;SDS011;2545;50.892;5.740;2023-03-14T01:42:57;9.37;;;1.97;;
5052;SDS011;2545;50.892;5.740;2023-03-14T01:51:21;8.53;;;2.03;;
5052;SDS011;2545;50.892;5.740;2023-03-14T01:53:54;9.57;;;2.13;;
5052;SDS011;2545;50.892;5.740;2023-03-14T01:56:25;7.83;;;2.60;;
5052;SDS011;2545;50.892;5.740;2023-03-14T01:58:51;8.10;;;2.37;;
5052;SDS011;2545;50.892;5.740;2023-03-14T02:01:18;11.07;;;2.10;;
5052;SDS011;2545;50.892;5.740;2023-03-14T02:03:46;9.40;;;2.13;;
5052;SDS011;2545;50.892;5.740;2023-03-14T02:06:17;11.77;;;3.40;;
5052;SDS011;2545;50.892;5.740;2023-03-14T02:08:45;8.50;;;2.47;;
5052;SDS011;2545;50.892;5.740;2023-03-14T02:11:13;14.57;;;2.57;;
5052;SDS011;2545;50.892;5.740;2023-03-14T02:13:39;8.20;;;2.53;;
5052;SDS011;2545;50.892;5.740;2023-03-14T02:16:05;21.27;;;3.07;;
5052;SDS011;2545;50.892;5.740;2023-03-14T02:18:30;8.00;;;2.47;;
5052;SDS011;2545;50.892;5.740;2023-03-14T02:21:58;18.30;;;2.60;;
5052;SDS011;2545;50.892;5.740;2023-03-14T02:29:41;8.10;;;2.30;;
5052;SDS011;2545;50.892;5.740;2023-03-14T02:32:12;8.07;;;2.33;;
5052;SDS011;2545;50.892;5.740;2023-03-14T02:34:39;22.17;;;2.60;;
5052;SDS011;2545;50.892;5.740;2023-03-14T02:37:07;8.63;;;2.40;;
5052;SDS011;2545;50.892;5.740;2023-03-14T02:39:36;8.80;;;2.97;;
5052;SDS011;2545;50.892;5.740;2023-03-14T02:42:04;6.70;;;2.63;;
5052;SDS011;2545;50.892;5.740;2023-03-14T02:44:30;12.27;;;2.77;;
5052;SDS011;2545;50.892;5.740;2023-03-14T02:46:55;13.90;;;2.30;;
5052;SDS011;2545;50.892;5.740;2023-03-14T02:49:21;7.53;;;2.00;;
5052;SDS011;2545;50.892;5.740;2023-03-14T02:51:46;11.30;;;2.43;;
5052;SDS011;2545;50.892;5.740;2023-03-14T02:54:12;4.80;;;2.37;;
5052;SDS011;2545;50.892;5.740;2023-03-14T02:56:40;8.73;;;2.80;;
5052;SDS011;2545;50.892;5.740;2023-03-14T02:59:05;8.67;;;3.30;;
5052;SDS011;2545;50.892;5.740;2023-03-14T03:01:31;10.50;;;3.60;;
5052;SDS011;2545;50.892;5.740;2023-03-14T03:03:58;12.70;;;3.13;;
5052;SDS011;2545;50.892;5.740;2023-03-14T03:06:23;14.17;;;3.50;;
5052;SDS011;2545;50.892;5.740;2023-03-14T03:08:48;18.07;;;4.10;;
5052;SDS011;2545;50.892;5.740;2023-03-14T03:11:14;8.80;;;2.87;;
5052;SDS011;2545;50.892;5.740;2023-03-14T03:13:39;16.13;;;4.00;;
5052;SDS011;2545;50.892;5.740;2023-03-14T03:16:04;16.20;;;3.97;;
5052;SDS011;2545;50.892;5.740;2023-03-14T03:18:30;10.10;;;3.00;;
5052;SDS011;2545;50.892;5.740;2023-03-14T03:20:59;35.23;;;4.60;;
5052;SDS011;2545;50.892;5.740;2023-03-14T03:23:24;15.07;;;3.37;;
5052;SDS011;2545;50.892;5.740;2023-03-14T03:25:51;21.70;;;4.00;;
5052;SDS011;2545;50.892;5.740;2023-03-14T03:28:17;16.77;;;2.97;;
5052;SDS011;2545;50.892;5.740;2023-03-14T03:30:43;21.07;;;3.77;;
5052;SDS011;2545;50.892;5.740;2023-03-14T03:33:09;8.33;;;3.03;;
5052;SDS011;2545;50.892;5.740;2023-03-14T03:35:34;11.40;;;3.90;;
5052;SDS011;2545;50.892;5.740;2023-03-14T03:38:06;22.47;;;3.30;;
5052;SDS011;2545;50.892;5.740;2023-03-14T03:40:31;16.97;;;3.40;;
5052;SDS011;2545;50.892;5.740;2023-03-14T03:42:57;11.07;;;3.20;;
5052;SDS011;2545;50.892;5.740;2023-03-14T03:45:22;14.50;;;3.10;;
5052;SDS011;2545;50.892;5.740;2023-03-14T03:47:47;14.77;;;3.30;;
5052;SDS011;2545;50.892;5.740;2023-03-14T03:50:13;10.03;;;3.40;;
5052;SDS011;2545;50.892;5.740;2023-03-14T03:52:38;5.33;;;2.53;;
5052;SDS011;2545;50.892;5.740;2023-03-14T03:55:03;4.63;;;1.93;;
5052;SDS011;2545;50.892;5.740;2023-03-14T03:57:29;8.10;;;1.90;;
5052;SDS011;2545;50.892;5.740;2023-03-14T03:59:54;14.70;;;3.40;;
5052;SDS011;2545;50.892;5.740;2023-03-14T04:02:20;12.23;;;2.23;;
5052;SDS011;2545;50.892;5.740;2023-03-14T04:04:45;6.67;;;1.70;;
5052;SDS011;2545;50.892;5.740;2023-03-14T04:07:10;6.03;;;2.10;;
5052;SDS011;2545;50.892;5.740;2023-03-14T04:09:38;5.90;;;1.60;;
5052;SDS011;2545;50.892;5.740;2023-03-14T04:12:04;3.60;;;1.90;;
5052;SDS011;2545;50.892;5.740;2023-03-14T04:14:29;6.43;;;1.63;;
5052;SDS011;2545;50.892;5.740;2023-03-14T04:16:55;4.97;;;1.60;;
5052;SDS011;2545;50.892;5.740;2023-03-14T04:19:20;2.93;;;1.50;;
5052;SDS011;2545;50.892;5.740;2023-03-14T04:21:45;3.80;;;1.63;;
5052;SDS011;2545;50.892;5.740;2023-03-14T04:24:11;7.47;;;1.53;;
5052;SDS011;2545;50.892;5.740;2023-03-14T04:26:37;4.83;;;1.20;;
5052;SDS011;2545;50.892;5.740;2023-03-14T04:29:03;3.60;;;1.20;;
5052;SDS011;2545;50.892;5.740;2023-03-14T04:31:28;1.40;;;1.30;;
5052;SDS011;2545;50.892;5.740;2023-03-14T04:33:53;2.37;;;1.20;;
5052;SDS011;2545;50.892;5.740;2023-03-14T04:36:19;2.80;;;1.37;;
5052;SDS011;2545;50.892;5.740;2023-03-14T04:38:44;4.93;;;1.00;;
5052;SDS011;2545;50.892;5.740;2023-03-14T04:41:09;1.67;;;0.90;;
5052;SDS011;2545;50.892;5.740;2023-03-14T04:43:34;1.23;;;0.90;;
5052;SDS011;2545;50.892;5.740;2023-03-14T04:46:00;3.43;;;1.00;;
5052;SDS011;2545;50.892;5.740;2023-03-14T04:48:26;1.87;;;1.03;;
5052;SDS011;2545;50.892;5.740;2023-03-14T04:50:51;5.17;;;0.90;;
5052;SDS011;2545;50.892;5.740;2023-03-14T04:53:17;1.50;;;0.90;;
5052;SDS011;2545;50.892;5.740;2023-03-14T04:55:52;1.10;;;0.93;;
5052;SDS011;2545;50.892;5.740;2023-03-14T04:58:19;4.03;;;1.10;;
5052;SDS011;2545;50.892;5.740;2023-03-14T05:00:46;3.33;;;1.00;;
5052;SDS011;2545;50.892;5.740;2023-03-14T05:03:11;1.93;;;0.90;;
5052;SDS011;2545;50.892;5.740;2023-03-14T05:05:39;3.47;;;0.83;;
5052;SDS011;2545;50.892;5.740;2023-03-14T05:08:04;7.23;;;1.00;;
5052;SDS011;2545;50.892;5.740;2023-03-14T05:10:29;1.57;;;0.90;;
5052;SDS011;2545;50.892;5.740;2023-03-14T05:12:55;3.43;;;1.07;;
5052;SDS011;2545;50.892;5.740;2023-03-14T05:15:20;1.10;;;1.00;;
5052;SDS011;2545;50.892;5.740;2023-03-14T05:17:45;2.37;;;0.83;;
5052;SDS011;2545;50.892;5.740;2023-03-14T05:20:11;0.80;;;0.70;;
5052;SDS011;2545;50.892;5.740;2023-03-14T05:22:37;1.47;;;0.80;;
5052;SDS011;2545;50.892;5.740;2023-03-14T05:25:03;1.93;;;1.13;;
5052;SDS011;2545;50.892;5.740;2023-03-14T05:27:29;1.37;;;0.90;;
5052;SDS011;2545;50.892;5.740;2023-03-14T05:29:54;2.10;;;1.10;;
5052;SDS011;2545;50.892;5.740;2023-03-14T05:32:20;1.50;;;0.73;;
5052;SDS011;2545;50.892;5.740;2023-03-14T05:34:45;2.70;;;0.90;;
5052;SDS011;2545;50.892;5.740;2023-03-14T05:37:10;0.73;;;0.73;;
5052;SDS011;2545;50.892;5.740;2023-03-14T05:39:36;0.93;;;0.83;;
5052;SDS011;2545;50.892;5.740;2023-03-14T05:42:01;2.27;;;0.70;;
5052;SDS011;2545;50.892;5.740;2023-03-14T05:44:26;1.67;;;0.90;;
5052;SDS011;2545;50.892;5.740;2023-03-14T05:46:52;1.57;;;0.90;;
5052;SDS011;2545;50.892;5.740;2023-03-14T05:49:17;1.67;;;0.93;;
5052;SDS011;2545;50.892;5.740;2023-03-14T05:51:42;1.87;;;0.90;;
5052;SDS011;2545;50.892;5.740;2023-03-14T05:54:08;0.80;;;0.80;;
5052;SDS011;2545;50.892;5.740;2023-03-14T05:56:33;2.00;;;0.97;;
5052;SDS011;2545;50.892;5.740;2023-03-14T05:58:58;0.90;;;0.83;;
5052;SDS011;2545;50.892;5.740;2023-03-14T06:01:27;0.80;;;0.80;;
5052;SDS011;2545;50.892;5.740;2023-03-14T06:03:52;1.00;;;1.00;;
5052;SDS011;2545;50.892;5.740;2023-03-14T06:06:18;0.93;;;0.90;;
5052;SDS011;2545;50.892;5.740;2023-03-14T06:08:43;1.17;;;1.07;;
5052;SDS011;2545;50.892;5.740;2023-03-14T06:11:08;1.17;;;1.00;;
5052;SDS011;2545;50.892;5.740;2023-03-14T06:13:34;1.63;;;1.33;;
5052;SDS011;2545;50.892;5.740;2023-03-14T06:15:59;3.67;;;1.47;;
5052;SDS011;2545;50.892;5.740;2023-03-14T06:18:25;1.53;;;1.43;;
5052;SDS011;2545;50.892;5.740;2023-03-14T06:20:53;2.83;;;1.70;;
5052;SDS011;2545;50.892;5.740;2023-03-14T06:23:19;1.47;;;1.37;;
5052;SDS011;2545;50.892;5.740;2023-03-14T06:25:45;1.50;;;1.40;;
5052;SDS011;2545;50.892;5.740;2023-03-14T06:28:10;1.30;;;1.20;;
5052;SDS011;2545;50.892;5.740;2023-03-14T06:30:35;2.70;;;1.67;;
5052;SDS011;2545;50.892;5.740;2023-03-14T06:33:00;4.00;;;1.43;;
5052;SDS011;2545;50.892;5.740;2023-03-14T06:35:26;3.27;;;1.50;;
5052;SDS011;2545;50.892;5.740;2023-03-14T06:37:51;1.23;;;1.10;;
5052;SDS011;2545;50.892;5.740;2023-03-14T06:40:16;1.50;;;1.27;;
5052;SDS011;2545;50.892;5.740;2023-03-14T06:42:43;1.87;;;1.40;;
5052;SDS011;2545;50.892;5.740;2023-03-14T06:45:09;1.50;;;1.00;;
5052;SDS011;2545;50.892;5.740;2023-03-14T06:47:35;2.13;;;1.20;;
5052;SDS011;2545;50.892;5.740;2023-03-14T06:50:00;1.60;;;1.10;;
5052;SDS011;2545;50.892;5.740;2023-03-14T06:52:25;1.57;;;1.30;;
5052;SDS011;2545;50.892;5.740;2023-03-14T06:54:51;1.50;;;1.40;;
5052;SDS011;2545;50.892;5.740;2023-03-14T06:57:16;4.70;;;1.40;;
5052;SDS011;2545;50.892;5.740;2023-03-14T06:59:42;4.00;;;1.60;;
5052;SDS011;2545;50.892;5.740;2023-03-14T07:02:09;4.90;;;1.33;;
5052;SDS011;2545;50.892;5.740;2023-03-14T07:04:36;3.30;;;1.40;;
5052;SDS011;2545;50.892;5.740;2023-03-14T07:07:01;2.97;;;1.30;;
5052;SDS011;2545;50.892;5.740;2023-03-14T07:09:27;2.53;;;1.00;;
5052;SDS011;2545;50.892;5.740;2023-03-14T07:11:52;2.60;;;1.00;;
5052;SDS011;2545;50.892;5.740;2023-03-14T07:14:17;2.40;;;1.10;;
5052;SDS011;2545;50.892;5.740;2023-03-14T07:16:43;1.30;;;1.10;;
5052;SDS011;2545;50.892;5.740;2023-03-14T07:19:08;2.23;;;1.50;;
5052;SDS011;2545;50.892;5.740;2023-03-14T07:21:33;1.60;;;1.40;;
5052;SDS011;2545;50.892;5.740;2023-03-14T07:23:59;5.33;;;1.20;;
5052;SDS011;2545;50.892;5.740;2023-03-14T07:26:25;1.73;;;1.30;;
5052;SDS011;2545;50.892;5.740;2023-03-14T07:28:50;1.10;;;1.00;;
5052;SDS011;2545;50.892;5.740;2023-03-14T07:31:15;1.70;;;1.33;;
5052;SDS011;2545;50.892;5.740;2023-03-14T07:33:41;4.00;;;1.77;;
5052;SDS011;2545;50.892;5.740;2023-03-14T07:36:06;1.57;;;1.43;;
5052;SDS011;2545;50.892;5.740;2023-03-14T07:38:32;5.43;;;1.53;;
5052;SDS011;2545;50.892;5.740;2023-03-14T07:40:58;2.07;;;1.50;;
5052;SDS011;2545;50.892;5.740;2023-03-14T07:43:27;4.17;;;1.70;;
5052;SDS011;2545;50.892;5.740;2023-03-14T07:45:53;1.40;;;1.30;;
5052;SDS011;2545;50.892;5.740;2023-03-14T07:48:18;2.73;;;1.33;;
5052;SDS011;2545;50.892;5.740;2023-03-14T07:50:44;3.77;;;2.03;;
5052;SDS011;2545;50.892;5.740;2023-03-14T07:53:12;2.90;;;1.40;;
5052;SDS011;2545;50.892;5.740;2023-03-14T07:55:39;5.73;;;1.67;;
5052;SDS011;2545;50.892;5.740;2023-03-14T07:58:04;1.60;;;1.50;;
5052;SDS011;2545;50.892;5.740;2023-03-14T08:00:30;1.40;;;1.30;;
5052;SDS011;2545;50.892;5.740;2023-03-14T08:02:55;1.90;;;1.80;;
5052;SDS011;2545;50.892;5.740;2023-03-14T08:05:20;1.50;;;1.40;;
5052;SDS011;2545;50.892;5.740;2023-03-14T08:07:46;1.60;;;1.50;;
5052;SDS011;2545;50.892;5.740;2023-03-14T08:10:11;1.60;;;1.10;;
5052;SDS011;2545;50.892;5.740;2023-03-14T08:12:40;1.33;;;1.20;;
5052;SDS011;2545;50.892;5.740;2023-03-14T08:15:06;2.13;;;1.40;;
5052;SDS011;2545;50.892;5.740;2023-03-14T08:17:32;1.60;;;1.37;;
5052;SDS011;2545;50.892;5.740;2023-03-14T08:19:57;1.90;;;1.40;;
5052;SDS011;2545;50.892;5.740;2023-03-14T08:22:22;1.63;;;1.43;;
5052;SDS011;2545;50.892;5.740;2023-03-14T08:24:47;2.60;;;1.27;;
5052;SDS011;2545;50.892;5.740;2023-03-14T08:27:13;2.10;;;1.30;;
5052;SDS011;2545;50.892;5.740;2023-03-14T08:29:39;0.97;;;0.97;;
5052;SDS011;2545;50.892;5.740;2023-03-14T08:32:06;2.70;;;1.10;;
5052;SDS011;2545;50.892;5.740;2023-03-14T08:34:32;3.67;;;1.00;;
5052;SDS011;2545;50.892;5.740;2023-03-14T08:36:58;1.20;;;1.00;;
5052;SDS011;2545;50.892;5.740;2023-03-14T08:39:23;1.90;;;1.10;;
5052;SDS011;2545;50.892;5.740;2023-03-14T08:41:49;0.80;;;0.77;;
5052;SDS011;2545;50.892;5.740;2023-03-14T08:44:15;1.10;;;1.00;;
5052;SDS011;2545;50.892;5.740;2023-03-14T08:46:40;2.33;;;0.80;;
5052;SDS011;2545;50.892;5.740;2023-03-14T08:49:05;1.30;;;1.13;;
5052;SDS011;2545;50.892;5.740;2023-03-14T08:51:31;3.33;;;1.10;;
5052;SDS011;2545;50.892;5.740;2023-03-14T08:53:56;2.90;;;1.00;;
5052;SDS011;2545;50.892;5.740;2023-03-14T08:56:21;1.43;;;1.20;;
5052;SDS011;2545;50.892;5.740;2023-03-14T08:58:47;4.60;;;1.00;;
5052;SDS011;2545;50.892;5.740;2023-03-14T09:01:12;1.20;;;1.10;;
5052;SDS011;2545;50.892;5.740;2023-03-14T09:03:37;4.10;;;1.20;;
5052;SDS011;2545;50.892;5.740;2023-03-14T09:06:07;3.33;;;1.40;;
5052;SDS011;2545;50.892;5.740;2023-03-14T09:08:34;7.10;;;1.20;;
5052;SDS011;2545;50.892;5.740;2023-03-14T09:11:01;1.73;;;1.60;;
5052;SDS011;2545;50.892;5.740;2023-03-14T09:13:26;4.00;;;1.70;;
5052;SDS011;2545;50.892;5.740;2023-03-14T09:15:52;3.13;;;1.07;;
5052;SDS011;2545;50.892;5.740;2023-03-14T09:18:18;2.00;;;1.10;;
5052;SDS011;2545;50.892;5.740;2023-03-14T09:20:44;4.40;;;1.63;;
5052;SDS011;2545;50.892;5.740;2023-03-14T09:23:09;4.13;;;1.70;;
5052;SDS011;2545;50.892;5.740;2023-03-14T09:25:35;5.60;;;1.70;;
5052;SDS011;2545;50.892;5.740;2023-03-14T09:28:00;2.17;;;1.97;;
5052;SDS011;2545;50.892;5.740;2023-03-14T09:30:25;2.23;;;2.03;;
5052;SDS011;2545;50.892;5.740;2023-03-14T09:32:51;2.27;;;2.10;;
5052;SDS011;2545;50.892;5.740;2023-03-14T09:35:16;4.10;;;2.37;;
5052;SDS011;2545;50.892;5.740;2023-03-14T09:37:41;2.27;;;2.17;;
5052;SDS011;2545;50.892;5.740;2023-03-14T09:40:09;4.40;;;2.23;;
5052;SDS011;2545;50.892;5.740;2023-03-14T09:42:38;2.50;;;2.27;;
5052;SDS011;2545;50.892;5.740;2023-03-14T09:45:06;3.67;;;2.50;;
5052;SDS011;2545;50.892;5.740;2023-03-14T09:47:35;3.93;;;2.43;;
5052;SDS011;2545;50.892;5.740;2023-03-14T09:50:01;5.67;;;2.33;;
5052;SDS011;2545;50.892;5.740;2023-03-14T09:52:27;2.43;;;2.00;;
5052;SDS011;2545;50.892;5.740;2023-03-14T09:57:34;2.53;;;2.40;;
5052;SDS011;2545;50.892;5.740;2023-03-14T10:00:02;7.43;;;3.00;;
5052;SDS011;2545;50.892;5.740;2023-03-14T10:02:39;3.40;;;2.40;;
5052;SDS011;2545;50.892;5.740;2023-03-14T10:05:19;6.70;;;2.60;;
5052;SDS011;2545;50.892;5.740;2023-03-14T10:07:47;3.47;;;2.17;;
5052;SDS011;2545;50.892;5.740;2023-03-14T10:10:16;11.33;;;3.10;;
5052;SDS011;2545;50.892;5.740;2023-03-14T10:12:45;2.50;;;2.30;;
5052;SDS011;2545;50.892;5.740;2023-03-14T10:15:13;2.87;;;2.00;;
5052;SDS011;2545;50.892;5.740;2023-03-14T10:17:44;7.57;;;2.40;;
5052;SDS011;2545;50.892;5.740;2023-03-14T10:20:35;6.10;;;2.10;;
5052;SDS011;2545;50.892;5.740;2023-03-14T10:22:59;3.63;;;2.07;;
5052;SDS011;2545;50.892;5.740;2023-03-14T10:25:46;5.90;;;1.43;;
5052;SDS011;2545;50.892;5.740;2023-03-14T10:28:33;2.17;;;1.30;;
5052;SDS011;2545;50.892;5.740;2023-03-14T10:31:05;1.20;;;1.10;;
5052;SDS011;2545;50.892;5.740;2023-03-14T10:33:31;1.30;;;1.00;;
5052;SDS011;2545;50.892;5.740;2023-03-14T10:35:59;4.30;;;1.30;;
5052;SDS011;2545;50.892;5.740;2023-03-14T10:38:30;1.30;;;1.03;;
5052;SDS011;2545;50.892;5.740;2023-03-14T10:40:57;2.13;;;1.20;;
5052;SDS011;2545;50.892;5.740;2023-03-14T10:43:42;4.20;;;1.37;;
5052;SDS011;2545;50.892;5.740;2023-03-14T10:46:09;3.77;;;1.50;;
5052;SDS011;2545;50.892;5.740;2023-03-14T10:48:39;5.30;;;1.70;;
5052;SDS011;2545;50.892;5.740;2023-03-14T10:51:08;2.00;;;1.60;;
5052;SDS011;2545;50.892;5.740;2023-03-14T10:53:39;2.00;;;1.80;;
5052;SDS011;2545;50.892;5.740;2023-03-14T10:56:17;3.70;;;1.90;;
5052;SDS011;2545;50.892;5.740;2023-03-14T10:58:46;3.70;;;1.60;;
5052;SDS011;2545;50.892;5.740;2023-03-14T11:01:50;2.80;;;1.57;;
5052;SDS011;2545;50.892;5.740;2023-03-14T11:04:38;1.40;;;1.30;;
5052;SDS011;2545;50.892;5.740;2023-03-14T11:10:31;3.83;;;1.70;;
5052;SDS011;2545;50.892;5.740;2023-03-14T11:20:35;3.33;;;1.50;;
5052;SDS011;2545;50.892;5.740;2023-03-14T11:23:18;2.57;;;2.37;;
5052;SDS011;2545;50.892;5.740;2023-03-14T11:36:37;1.37;;;1.27;;
5052;SDS011;2545;50.892;5.740;2023-03-14T11:39:03;3.80;;;1.40;;
5052;SDS011;2545;50.892;5.740;2023-03-14T11:41:38;2.70;;;1.40;;
5052;SDS011;2545;50.892;5.740;2023-03-14T11:44:16;1.50;;;1.40;;
5052;SDS011;2545;50.892;5.740;2023-03-14T11:46:56;2.50;;;1.73;;
5052;SDS011;2545;50.892;5.740;2023-03-14T11:49:30;6.03;;;1.90;;
5052;SDS011;2545;50.892;5.740;2023-03-14T11:52:14;5.20;;;2.73;;
5052;SDS011;2545;50.892;5.740;2023-03-14T11:54:52;5.73;;;2.10;;
5052;SDS011;2545;50.892;5.740;2023-03-14T11:57:23;4.23;;;1.73;;
5052;SDS011;2545;50.892;5.740;2023-03-14T12:02:21;5.80;;;2.03;;
5052;SDS011;2545;50.892;5.740;2023-03-14T12:04:55;3.57;;;2.00;;
5052;SDS011;2545;50.892;5.740;2023-03-14T12:07:23;7.03;;;2.43;;
5052;SDS011;2545;50.892;5.740;2023-03-14T12:10:05;2.90;;;1.70;;
5052;SDS011;2545;50.892;5.740;2023-03-14T12:12:31;1.90;;;1.30;;
5052;SDS011;2545;50.892;5.740;2023-03-14T12:14:58;6.47;;;2.10;;
5052;SDS011;2545;50.892;5.740;2023-03-14T12:17:46;8.43;;;1.80;;
5052;SDS011;2545;50.892;5.740;2023-03-14T12:22:49;4.03;;;2.67;;
5052;SDS011;2545;50.892;5.740;2023-03-14T12:33:39;5.30;;;2.47;;
5052;SDS011;2545;50.892;5.740;2023-03-14T12:35:45;2.43;;;2.23;;
5052;SDS011;2545;50.892;5.740;2023-03-14T12:43:54;4.40;;;2.00;;
5052;SDS011;2545;50.892;5.740;2023-03-14T12:46:23;2.90;;;1.80;;
5052;SDS011;2545;50.892;5.740;2023-03-14T12:51:29;3.33;;;2.10;;
5052;SDS011;2545;50.892;5.740;2023-03-14T12:59:51;4.93;;;1.60;;
5052;SDS011;2545;50.892;5.740;2023-03-14T13:02:26;4.03;;;1.50;;
5052;SDS011;2545;50.892;5.740;2023-03-14T13:07:33;2.93;;;1.23;;
5052;SDS011;2545;50.892;5.740;2023-03-14T13:12:37;7.37;;;1.83;;
5052;SDS011;2545;50.892;5.740;2023-03-14T13:15:11;6.20;;;1.50;;
5052;SDS011;2545;50.892;5.740;2023-03-14T13:17:41;3.13;;;1.53;;
5052;SDS011;2545;50.892;5.740;2023-03-14T13:20:17;8.90;;;2.00;;
5052;SDS011;2545;50.892;5.740;2023-03-14T13:22:48;2.17;;;1.83;;
5052;SDS011;2545;50.892;5.740;2023-03-14T13:25:14;3.40;;;1.60;;
5052;SDS011;2545;50.892;5.740;2023-03-14T13:27:41;4.07;;;2.07;;
5052;SDS011;2545;50.892;5.740;2023-03-14T13:30:14;7.30;;;2.13;;
5052;SDS011;2545;50.892;5.740;2023-03-14T13:32:43;8.30;;;2.53;;
5052;SDS011;2545;50.892;5.740;2023-03-14T13:35:17;10.03;;;2.57;;
5052;SDS011;2545;50.892;5.740;2023-03-14T13:38:05;8.83;;;2.30;;
5052;SDS011;2545;50.892;5.740;2023-03-14T13:40:42;12.43;;;1.80;;
5052;SDS011;2545;50.892;5.740;2023-03-14T13:45:55;9.00;;;2.10;;
5052;SDS011;2545;50.892;5.740;2023-03-14T13:48:26;5.87;;;1.90;;
5052;SDS011;2545;50.892;5.740;2023-03-14T13:50:55;12.87;;;3.47;;
5052;SDS011;2545;50.892;5.740;2023-03-14T13:53:23;13.10;;;2.00;;
5052;SDS011;2545;50.892;5.740;2023-03-14T13:55:50;14.37;;;2.40;;
5052;SDS011;2545;50.892;5.740;2023-03-14T13:58:24;9.47;;;2.43;;
5052;SDS011;2545;50.892;5.740;2023-03-14T14:00:56;10.53;;;3.00;;
5052;SDS011;2545;50.892;5.740;2023-03-14T14:03:31;6.13;;;2.27;;
5052;SDS011;2545;50.892;5.740;2023-03-14T14:05:59;11.60;;;3.20;;
5052;SDS011;2545;50.892;5.740;2023-03-14T14:08:25;17.63;;;2.97;;
5052;SDS011;2545;50.892;5.740;2023-03-14T14:10:52;19.70;;;3.63;;
5052;SDS011;2545;50.892;5.740;2023-03-14T14:13:23;15.97;;;2.97;;
5052;SDS011;2545;50.892;5.740;2023-03-14T14:15:51;12.00;;;2.90;;
5052;SDS011;2545;50.892;5.740;2023-03-14T14:18:19;12.67;;;1.97;;
5052;SDS011;2545;50.892;5.740;2023-03-14T14:20:50;9.67;;;2.90;;
5052;SDS011;2545;50.892;5.740;2023-03-14T14:23:17;5.07;;;2.47;;
5052;SDS011;2545;50.892;5.740;2023-03-14T14:25:50;9.93;;;2.40;;
5052;SDS011;2545;50.892;5.740;2023-03-14T14:31:04;10.13;;;2.93;;
5052;SDS011;2545;50.892;5.740;2023-03-14T14:33:37;16.20;;;3.57;;
5052;SDS011;2545;50.892;5.740;2023-03-14T14:36:04;22.63;;;5.17;;
5052;SDS011;2545;50.892;5.740;2023-03-14T14:38:38;10.10;;;3.40;;
5052;SDS011;2545;50.892;5.740;2023-03-14T14:41:04;19.70;;;3.17;;
5052;SDS011;2545;50.892;5.740;2023-03-14T14:43:30;11.67;;;4.03;;
5052;SDS011;2545;50.892;5.740;2023-03-14T14:46:05;14.30;;;3.13;;
5052;SDS011;2545;50.892;5.740;2023-03-14T14:48:35;10.97;;;3.23;;
5052;SDS011;2545;50.892;5.740;2023-03-14T14:51:03;5.27;;;2.70;;
5052;SDS011;2545;50.892;5.740;2023-03-14T14:53:37;11.73;;;3.80;;
5052;SDS011;2545;50.892;5.740;2023-03-14T14:56:06;7.87;;;2.67;;
5052;SDS011;2545;50.892;5.740;2023-03-14T14:58:40;17.90;;;3.50;;
5052;SDS011;2545;50.892;5.740;2023-03-14T15:01:10;11.07;;;3.77;;
5052;SDS011;2545;50.892;5.740;2023-03-14T15:03:41;11.27;;;3.60;;
5052;SDS011;2545;50.892;5.740;2023-03-14T15:06:08;12.63;;;4.27;;
5052;SDS011;2545;50.892;5.740;2023-03-14T15:08:36;12.40;;;3.73;;
5052;SDS011;2545;50.892;5.740;2023-03-14T15:11:02;10.50;;;3.70;;
5052;SDS011;2545;50.892;5.740;2023-03-14T15:13:27;12.60;;;3.70;;
5052;SDS011;2545;50.892;5.740;2023-03-14T15:15:52;8.13;;;3.63;;
5052;SDS011;2545;50.892;5.740;2023-03-14T15:18:22;17.00;;;4.70;;
5052;SDS011;2545;50.892;5.740;2023-03-14T15:20:53;14.63;;;4.37;;
5052;SDS011;2545;50.892;5.740;2023-03-14T15:23:19;22.97;;;4.80;;
5052;SDS011;2545;50.892;5.740;2023-03-14T15:25:46;14.23;;;4.20;;
5052;SDS011;2545;50.892;5.740;2023-03-14T15:28:22;14.87;;;3.97;;
5052;SDS011;2545;50.892;5.740;2023-03-14T15:30:50;10.33;;;3.10;;
5052;SDS011;2545;50.892;5.740;2023-03-14T15:33:18;42.00;;;3.43;;
5052;SDS011;2545;50.892;5.740;2023-03-14T15:35:43;10.43;;;2.80;;
5052;SDS011;2545;50.892;5.740;2023-03-14T15:38:10;12.50;;;3.37;;
5052;SDS011;2545;50.892;5.740;2023-03-14T15:40:39;11.50;;;2.83;;
5052;SDS011;2545;50.892;5.740;2023-03-14T15:43:05;9.73;;;3.37;;
5052;SDS011;2545;50.892;5.740;2023-03-14T15:45:31;11.40;;;3.03;;
5052;SDS011;2545;50.892;5.740;2023-03-14T15:47:57;19.27;;;3.43;;
5052;SDS011;2545;50.892;5.740;2023-03-14T15:50:22;12.90;;;4.20;;
5052;SDS011;2545;50.892;5.740;2023-03-14T15:52:48;14.77;;;3.20;;
5052;SDS011;2545;50.892;5.740;2023-03-14T15:55:13;5.27;;;2.87;;
5052;SDS011;2545;50.892;5.740;2023-03-14T15:57:39;11.73;;;2.97;;
5052;SDS011;2545;50.892;5.740;2023-03-14T16:00:09;12.47;;;3.03;;
5052;SDS011;2545;50.892;5.740;2023-03-14T16:02:40;13.27;;;5.70;;
5052;SDS011;2545;50.892;5.740;2023-03-14T16:05:07;11.30;;;3.20;;
5052;SDS011;2545;50.892;5.740;2023-03-14T16:07:33;11.90;;;2.50;;
5052;SDS011;2545;50.892;5.740;2023-03-14T16:09:59;4.67;;;1.73;;
5052;SDS011;2545;50.892;5.740;2023-03-14T16:12:24;6.00;;;1.77;;
5052;SDS011;2545;50.892;5.740;2023-03-14T16:14:49;2.70;;;1.60;;
5052;SDS011;2545;50.892;5.740;2023-03-14T16:17:15;8.60;;;1.70;;
5052;SDS011;2545;50.892;5.740;2023-03-14T16:19:40;2.90;;;1.57;;
5052;SDS011;2545;50.892;5.740;2023-03-14T16:22:06;4.03;;;1.50;;
5052;SDS011;2545;50.892;5.740;2023-03-14T16:24:31;3.20;;;1.50;;
5052;SDS011;2545;50.892;5.740;2023-03-14T16:26:57;4.40;;;1.30;;
5052;SDS011;2545;50.892;5.740;2023-03-14T16:29:22;3.37;;;1.50;;